sensor_id;sensor_type;location;lat;lon;timestamp;P1;durP1;ratioP1;P2;durP2;ratioP2
76131;SDS011;64877;50.994;13.650;2024-03-23T00:56:05;10.02;;;6.05;;
76131;SDS011;64877;50.994;13.650;2024-03-23T00:58:31;13.18;;;6.82;;
76131;SDS011;64877;50.994;13.650;2024-03-23T01:00:56;13.60;;;8.18;;
76131;SDS011;64877;50.994;13.650;2024-03-23T01:03:22;14.40;;;8.50;;
76131;SDS011;64877;50.994;13.650;2024-03-23T01:05:47;17.25;;;8.50;;
76131;SDS011;64877;50.994;13.650;2024-03-23T01:08:14;18.65;;;8.90;;
76131;SDS011;64877;50.994;13.650;2024-03-23T01:10:39;11.38;;;6.93;;
76131;SDS011;64877;50.994;13.650;2024-03-23T01:13:05;14.65;;;7.38;;
76131;SDS011;64877;50.994;13.650;2024-03-23T01:15:30;10.77;;;6.82;;
76131;SDS011;64877;50.994;13.650;2024-03-23T01:17:55;11.40;;;7.35;;
76131;SDS011;64877;50.994;13.650;2024-03-23T01:20:21;12.63;;;7.10;;
76131;SDS011;64877;50.994;13.650;2024-03-23T01:22:46;12.90;;;6.88;;
76131;SDS011;64877;50.994;13.650;2024-03-23T01:25:12;10.20;;;6.50;;
76131;SDS011;64877;50.994;13.650;2024-03-23T01:27:37;14.52;;;6.80;;
76131;SDS011;64877;50.994;13.650;2024-03-23T01:30:03;13.23;;;6.53;;
76131;SDS011;64877;50.994;13.650;2024-03-23T01:32:28;11.35;;;6.80;;
76131;SDS011;64877;50.994;13.650;2024-03-23T01:34:53;11.75;;;6.57;;
76131;SDS011;64877;50.994;13.650;2024-03-23T01:37:19;12.07;;;7.00;;
76131;SDS011;64877;50.994;13.650;2024-03-23T01:39:44;13.75;;;7.05;;
76131;SDS011;64877;50.994;13.650;2024-03-23T01:42:10;15.43;;;8.95;;
76131;SDS011;64877;50.994;13.650;2024-03-23T01:44:36;16.48;;;10.00;;
76131;SDS011;64877;50.994;13.650;2024-03-23T01:47:03;17.10;;;10.13;;
76131;SDS011;64877;50.994;13.650;2024-03-23T01:49:28;17.10;;;10.13;;
76131;SDS011;64877;50.994;13.650;2024-03-23T01:51:54;19.00;;;10.90;;
76131;SDS011;64877;50.994;13.650;2024-03-23T01:54:20;20.35;;;12.20;;
76131;SDS011;64877;50.994;13.650;2024-03-23T01:56:46;18.65;;;11.65;;
76131;SDS011;64877;50.994;13.650;2024-03-23T01:59:12;15.07;;;8.40;;
76131;SDS011;64877;50.994;13.650;2024-03-23T02:01:38;16.77;;;9.38;;
76131;SDS011;64877;50.994;13.650;2024-03-23T02:04:03;16.25;;;9.55;;
76131;SDS011;64877;50.994;13.650;2024-03-23T02:06:29;14.75;;;8.68;;
76131;SDS011;64877;50.994;13.650;2024-03-23T02:08:55;20.10;;;11.20;;
76131;SDS011;64877;50.994;13.650;2024-03-23T02:11:20;18.30;;;10.60;;
76131;SDS011;64877;50.994;13.650;2024-03-23T02:13:46;20.15;;;11.50;;
76131;SDS011;64877;50.994;13.650;2024-03-23T02:16:11;24.90;;;13.43;;
76131;SDS011;64877;50.994;13.650;2024-03-23T02:18:38;19.27;;;11.75;;
76131;SDS011;64877;50.994;13.650;2024-03-23T02:21:03;16.48;;;10.63;;
76131;SDS011;64877;50.994;13.650;2024-03-23T02:23:29;21.23;;;11.75;;
76131;SDS011;64877;50.994;13.650;2024-03-23T02:25:54;22.70;;;12.15;;
76131;SDS011;64877;50.994;13.650;2024-03-23T02:28:20;20.70;;;11.77;;
76131;SDS011;64877;50.994;13.650;2024-03-23T02:30:47;21.27;;;11.90;;
76131;SDS011;64877;50.994;13.650;2024-03-23T02:33:13;22.38;;;12.20;;
76131;SDS011;64877;50.994;13.650;2024-03-23T02:35:39;18.85;;;10.98;;
76131;SDS011;64877;50.994;13.650;2024-03-23T02:38:04;19.42;;;11.60;;
76131;SDS011;64877;50.994;13.650;2024-03-23T02:40:29;19.75;;;10.68;;
76131;SDS011;64877;50.994;13.650;2024-03-23T02:42:55;21.40;;;12.60;;
76131;SDS011;64877;50.994;13.650;2024-03-23T02:45:20;21.52;;;11.65;;
76131;SDS011;64877;50.994;13.650;2024-03-23T02:47:46;23.67;;;12.60;;
76131;SDS011;64877;50.994;13.650;2024-03-23T02:50:11;22.00;;;13.07;;
76131;SDS011;64877;50.994;13.650;2024-03-23T02:52:37;16.63;;;11.02;;
76131;SDS011;64877;50.994;13.650;2024-03-23T02:55:03;21.60;;;10.93;;
76131;SDS011;64877;50.994;13.650;2024-03-23T02:57:28;19.80;;;11.98;;
76131;SDS011;64877;50.994;13.650;2024-03-23T02:59:54;22.98;;;11.15;;
76131;SDS011;64877;50.994;13.650;2024-03-23T03:02:20;20.10;;;10.95;;
76131;SDS011;64877;50.994;13.650;2024-03-23T03:04:46;20.67;;;11.48;;
76131;SDS011;64877;50.994;13.650;2024-03-23T03:07:12;21.90;;;12.25;;
76131;SDS011;64877;50.994;13.650;2024-03-23T03:09:38;23.23;;;12.65;;
76131;SDS011;64877;50.994;13.650;2024-03-23T03:12:04;21.00;;;11.82;;
76131;SDS011;64877;50.994;13.650;2024-03-23T03:14:33;20.38;;;12.55;;
76131;SDS011;64877;50.994;13.650;2024-03-23T03:16:59;25.20;;;14.43;;
76131;SDS011;64877;50.994;13.650;2024-03-23T03:19:24;27.65;;;13.85;;
76131;SDS011;64877;50.994;13.650;2024-03-23T03:21:50;26.65;;;15.38;;
76131;SDS011;64877;50.994;13.650;2024-03-23T03:24:15;26.10;;;14.20;;
76131;SDS011;64877;50.994;13.650;2024-03-23T03:26:41;26.65;;;14.75;;
76131;SDS011;64877;50.994;13.650;2024-03-23T03:29:07;29.52;;;15.20;;
76131;SDS011;64877;50.994;13.650;2024-03-23T03:31:32;22.10;;;13.85;;
76131;SDS011;64877;50.994;13.650;2024-03-23T03:33:58;22.27;;;13.27;;
76131;SDS011;64877;50.994;13.650;2024-03-23T03:36:23;20.50;;;12.05;;
76131;SDS011;64877;50.994;13.650;2024-03-23T03:38:49;20.65;;;12.15;;
76131;SDS011;64877;50.994;13.650;2024-03-23T03:41:14;22.02;;;12.40;;
76131;SDS011;64877;50.994;13.650;2024-03-23T03:43:39;23.02;;;13.52;;
76131;SDS011;64877;50.994;13.650;2024-03-23T03:46:05;20.88;;;11.40;;
76131;SDS011;64877;50.994;13.650;2024-03-23T03:48:33;21.05;;;13.75;;
76131;SDS011;64877;50.994;13.650;2024-03-23T03:50:59;23.38;;;14.07;;
76131;SDS011;64877;50.994;13.650;2024-03-23T03:53:24;24.88;;;13.23;;
76131;SDS011;64877;50.994;13.650;2024-03-23T03:55:50;28.67;;;14.25;;
76131;SDS011;64877;50.994;13.650;2024-03-23T03:58:15;22.98;;;13.00;;
76131;SDS011;64877;50.994;13.650;2024-03-23T04:00:41;23.80;;;13.10;;
76131;SDS011;64877;50.994;13.650;2024-03-23T04:03:06;25.60;;;13.77;;
76131;SDS011;64877;50.994;13.650;2024-03-23T04:05:31;25.25;;;14.90;;
76131;SDS011;64877;50.994;13.650;2024-03-23T04:07:57;29.80;;;15.65;;
76131;SDS011;64877;50.994;13.650;2024-03-23T04:10:23;25.90;;;15.55;;
76131;SDS011;64877;50.994;13.650;2024-03-23T04:12:48;31.90;;;16.42;;
76131;SDS011;64877;50.994;13.650;2024-03-23T04:15:14;31.27;;;16.67;;
76131;SDS011;64877;50.994;13.650;2024-03-23T04:17:39;28.70;;;15.93;;
76131;SDS011;64877;50.994;13.650;2024-03-23T04:20:07;26.30;;;15.60;;
76131;SDS011;64877;50.994;13.650;2024-03-23T04:22:36;33.13;;;17.13;;
76131;SDS011;64877;50.994;13.650;2024-03-23T04:25:02;27.25;;;16.55;;
76131;SDS011;64877;50.994;13.650;2024-03-23T04:27:34;28.88;;;15.98;;
76131;SDS011;64877;50.994;13.650;2024-03-23T04:30:00;31.38;;;16.85;;
76131;SDS011;64877;50.994;13.650;2024-03-23T04:32:29;33.75;;;19.30;;
76131;SDS011;64877;50.994;13.650;2024-03-23T04:34:55;31.65;;;17.40;;
76131;SDS011;64877;50.994;13.650;2024-03-23T04:37:21;34.13;;;17.70;;
76131;SDS011;64877;50.994;13.650;2024-03-23T04:39:47;34.15;;;18.48;;
76131;SDS011;64877;50.994;13.650;2024-03-23T04:42:14;35.20;;;19.25;;
76131;SDS011;64877;50.994;13.650;2024-03-23T04:44:40;35.28;;;19.35;;
76131;SDS011;64877;50.994;13.650;2024-03-23T04:47:05;34.92;;;19.08;;
76131;SDS011;64877;50.994;13.650;2024-03-23T04:49:32;32.50;;;17.77;;
76131;SDS011;64877;50.994;13.650;2024-03-23T04:51:58;33.83;;;19.02;;
76131;SDS011;64877;50.994;13.650;2024-03-23T04:54:23;33.45;;;18.05;;
76131;SDS011;64877;50.994;13.650;2024-03-23T04:56:49;34.38;;;16.90;;
76131;SDS011;64877;50.994;13.650;2024-03-23T04:59:14;34.15;;;17.00;;
76131;SDS011;64877;50.994;13.650;2024-03-23T05:01:40;31.35;;;17.90;;
76131;SDS011;64877;50.994;13.650;2024-03-23T05:04:08;31.58;;;17.05;;
76131;SDS011;64877;50.994;13.650;2024-03-23T05:06:33;31.60;;;17.90;;
76131;SDS011;64877;50.994;13.650;2024-03-23T05:08:59;34.47;;;17.52;;
76131;SDS011;64877;50.994;13.650;2024-03-23T05:11:28;33.78;;;18.70;;
76131;SDS011;64877;50.994;13.650;2024-03-23T05:13:53;35.35;;;18.63;;
76131;SDS011;64877;50.994;13.650;2024-03-23T05:16:19;27.88;;;16.02;;
76131;SDS011;64877;50.994;13.650;2024-03-23T05:18:44;34.20;;;18.20;;
76131;SDS011;64877;50.994;13.650;2024-03-23T05:21:09;32.70;;;18.38;;
76131;SDS011;64877;50.994;13.650;2024-03-23T05:23:35;34.22;;;17.63;;
76131;SDS011;64877;50.994;13.650;2024-03-23T05:26:00;30.73;;;16.65;;
76131;SDS011;64877;50.994;13.650;2024-03-23T05:28:26;26.90;;;15.63;;
76131;SDS011;64877;50.994;13.650;2024-03-23T05:30:52;31.05;;;16.40;;
76131;SDS011;64877;50.994;13.650;2024-03-23T05:33:21;33.90;;;17.15;;
76131;SDS011;64877;50.994;13.650;2024-03-23T05:35:47;32.95;;;19.30;;
76131;SDS011;64877;50.994;13.650;2024-03-23T05:40:52;28.13;;;16.65;;
76131;SDS011;64877;50.994;13.650;2024-03-23T05:43:27;29.60;;;15.32;;
76131;SDS011;64877;50.994;13.650;2024-03-23T05:45:57;31.38;;;17.20;;
76131;SDS011;64877;50.994;13.650;2024-03-23T05:48:23;32.10;;;17.15;;
76131;SDS011;64877;50.994;13.650;2024-03-23T05:50:50;30.13;;;17.42;;
76131;SDS011;64877;50.994;13.650;2024-03-23T05:53:16;29.15;;;17.67;;
76131;SDS011;64877;50.994;13.650;2024-03-23T05:55:42;32.47;;;16.92;;
76131;SDS011;64877;50.994;13.650;2024-03-23T05:58:08;34.92;;;18.63;;
76131;SDS011;64877;50.994;13.650;2024-03-23T06:00:34;30.65;;;17.05;;
76131;SDS011;64877;50.994;13.650;2024-03-23T06:02:59;31.23;;;18.30;;
76131;SDS011;64877;50.994;13.650;2024-03-23T06:05:25;33.20;;;18.65;;
76131;SDS011;64877;50.994;13.650;2024-03-23T06:07:50;35.38;;;18.85;;
76131;SDS011;64877;50.994;13.650;2024-03-23T06:10:16;30.85;;;17.02;;
76131;SDS011;64877;50.994;13.650;2024-03-23T06:12:41;33.70;;;19.33;;
76131;SDS011;64877;50.994;13.650;2024-03-23T06:15:07;37.10;;;18.73;;
76131;SDS011;64877;50.994;13.650;2024-03-23T06:17:38;37.97;;;20.42;;
76131;SDS011;64877;50.994;13.650;2024-03-23T06:20:04;38.00;;;20.48;;
76131;SDS011;64877;50.994;13.650;2024-03-23T06:22:33;36.20;;;19.33;;
76131;SDS011;64877;50.994;13.650;2024-03-23T06:24:59;34.25;;;19.48;;
76131;SDS011;64877;50.994;13.650;2024-03-23T06:27:24;35.28;;;20.00;;
76131;SDS011;64877;50.994;13.650;2024-03-23T06:29:50;31.17;;;18.90;;
76131;SDS011;64877;50.994;13.650;2024-03-23T06:32:16;34.42;;;19.27;;
76131;SDS011;64877;50.994;13.650;2024-03-23T06:34:42;34.63;;;19.02;;
76131;SDS011;64877;50.994;13.650;2024-03-23T06:37:07;34.80;;;20.13;;
76131;SDS011;64877;50.994;13.650;2024-03-23T06:39:35;34.38;;;19.65;;
76131;SDS011;64877;50.994;13.650;2024-03-23T06:42:01;37.75;;;19.85;;
76131;SDS011;64877;50.994;13.650;2024-03-23T06:44:27;39.67;;;20.25;;
76131;SDS011;64877;50.994;13.650;2024-03-23T06:46:53;36.42;;;18.55;;
76131;SDS011;64877;50.994;13.650;2024-03-23T06:49:18;33.55;;;19.35;;
76131;SDS011;64877;50.994;13.650;2024-03-23T06:51:44;33.58;;;19.00;;
76131;SDS011;64877;50.994;13.650;2024-03-23T06:54:10;38.05;;;21.00;;
76131;SDS011;64877;50.994;13.650;2024-03-23T06:56:35;39.60;;;21.92;;
76131;SDS011;64877;50.994;13.650;2024-03-23T06:59:01;40.35;;;21.23;;
76131;SDS011;64877;50.994;13.650;2024-03-23T07:01:26;37.60;;;19.35;;
76131;SDS011;64877;50.994;13.650;2024-03-23T07:03:53;35.33;;;20.05;;
76131;SDS011;64877;50.994;13.650;2024-03-23T07:06:19;38.03;;;20.75;;
76131;SDS011;64877;50.994;13.650;2024-03-23T07:08:44;36.65;;;21.17;;
76131;SDS011;64877;50.994;13.650;2024-03-23T07:11:10;40.30;;;20.60;;
76131;SDS011;64877;50.994;13.650;2024-03-23T07:13:35;44.65;;;21.85;;
76131;SDS011;64877;50.994;13.650;2024-03-23T07:16:01;38.17;;;21.02;;
76131;SDS011;64877;50.994;13.650;2024-03-23T07:18:26;37.65;;;20.50;;
76131;SDS011;64877;50.994;13.650;2024-03-23T07:20:55;34.92;;;19.65;;
76131;SDS011;64877;50.994;13.650;2024-03-23T07:23:22;32.90;;;19.40;;
76131;SDS011;64877;50.994;13.650;2024-03-23T07:26:05;34.05;;;19.25;;
76131;SDS011;64877;50.994;13.650;2024-03-23T07:28:31;32.50;;;18.13;;
76131;SDS011;64877;50.994;13.650;2024-03-23T07:31:01;29.92;;;17.15;;
76131;SDS011;64877;50.994;13.650;2024-03-23T07:33:27;31.25;;;18.50;;
76131;SDS011;64877;50.994;13.650;2024-03-23T07:35:53;35.30;;;19.50;;
76131;SDS011;64877;50.994;13.650;2024-03-23T07:38:19;34.38;;;18.02;;
76131;SDS011;64877;50.994;13.650;2024-03-23T07:40:44;32.53;;;18.13;;
76131;SDS011;64877;50.994;13.650;2024-03-23T07:43:10;32.95;;;19.77;;
76131;SDS011;64877;50.994;13.650;2024-03-23T07:45:35;32.50;;;18.90;;
76131;SDS011;64877;50.994;13.650;2024-03-23T07:48:02;36.67;;;21.02;;
76131;SDS011;64877;50.994;13.650;2024-03-23T07:50:28;36.55;;;20.40;;
76131;SDS011;64877;50.994;13.650;2024-03-23T07:52:54;34.38;;;17.92;;
76131;SDS011;64877;50.994;13.650;2024-03-23T07:55:19;32.90;;;18.38;;
76131;SDS011;64877;50.994;13.650;2024-03-23T07:57:45;32.58;;;18.33;;
76131;SDS011;64877;50.994;13.650;2024-03-23T08:00:10;30.67;;;19.08;;
76131;SDS011;64877;50.994;13.650;2024-03-23T08:02:38;36.92;;;20.38;;
76131;SDS011;64877;50.994;13.650;2024-03-23T08:05:03;33.05;;;19.70;;
76131;SDS011;64877;50.994;13.650;2024-03-23T08:07:29;35.33;;;20.00;;
76131;SDS011;64877;50.994;13.650;2024-03-23T08:09:55;36.47;;;20.40;;
76131;SDS011;64877;50.994;13.650;2024-03-23T08:12:20;33.70;;;20.88;;
76131;SDS011;64877;50.994;13.650;2024-03-23T08:14:45;34.15;;;20.17;;
76131;SDS011;64877;50.994;13.650;2024-03-23T08:17:11;36.10;;;20.52;;
76131;SDS011;64877;50.994;13.650;2024-03-23T08:19:36;32.78;;;19.15;;
76131;SDS011;64877;50.994;13.650;2024-03-23T08:22:01;34.33;;;18.80;;
76131;SDS011;64877;50.994;13.650;2024-03-23T08:24:27;32.20;;;19.40;;
76131;SDS011;64877;50.994;13.650;2024-03-23T08:26:54;30.75;;;18.80;;
76131;SDS011;64877;50.994;13.650;2024-03-23T08:29:20;27.25;;;17.80;;
76131;SDS011;64877;50.994;13.650;2024-03-23T08:31:45;31.63;;;17.80;;
76131;SDS011;64877;50.994;13.650;2024-03-23T08:34:10;30.50;;;17.60;;
76131;SDS011;64877;50.994;13.650;2024-03-23T08:36:36;30.23;;;17.77;;
76131;SDS011;64877;50.994;13.650;2024-03-23T08:39:01;25.98;;;16.48;;
76131;SDS011;64877;50.994;13.650;2024-03-23T08:41:27;27.75;;;17.08;;
76131;SDS011;64877;50.994;13.650;2024-03-23T08:43:52;29.27;;;17.92;;
76131;SDS011;64877;50.994;13.650;2024-03-23T08:46:17;30.23;;;17.02;;
76131;SDS011;64877;50.994;13.650;2024-03-23T08:48:46;32.90;;;18.98;;
76131;SDS011;64877;50.994;13.650;2024-03-23T08:51:14;24.95;;;16.25;;
76131;SDS011;64877;50.994;13.650;2024-03-23T08:53:41;33.50;;;19.85;;
76131;SDS011;64877;50.994;13.650;2024-03-23T08:56:07;31.60;;;19.52;;
76131;SDS011;64877;50.994;13.650;2024-03-23T08:58:33;34.33;;;21.48;;
76131;SDS011;64877;50.994;13.650;2024-03-23T09:01:03;32.13;;;18.55;;
76131;SDS011;64877;50.994;13.650;2024-03-23T09:03:32;25.88;;;16.10;;
76131;SDS011;64877;50.994;13.650;2024-03-23T09:05:59;26.92;;;16.10;;
76131;SDS011;64877;50.994;13.650;2024-03-23T09:08:24;25.42;;;16.63;;
76131;SDS011;64877;50.994;13.650;2024-03-23T09:10:51;15.63;;;9.20;;
76131;SDS011;64877;50.994;13.650;2024-03-23T09:13:17;10.65;;;7.10;;
76131;SDS011;64877;50.994;13.650;2024-03-23T09:15:46;8.50;;;5.25;;
76131;SDS011;64877;50.994;13.650;2024-03-23T09:18:12;10.50;;;6.45;;
76131;SDS011;64877;50.994;13.650;2024-03-23T09:20:38;10.27;;;6.13;;
76131;SDS011;64877;50.994;13.650;2024-03-23T09:23:03;10.93;;;6.95;;
76131;SDS011;64877;50.994;13.650;2024-03-23T09:25:29;12.25;;;6.78;;
76131;SDS011;64877;50.994;13.650;2024-03-23T09:27:54;11.85;;;7.25;;
76131;SDS011;64877;50.994;13.650;2024-03-23T09:30:20;9.70;;;6.53;;
76131;SDS011;64877;50.994;13.650;2024-03-23T09:32:45;11.85;;;6.63;;
76131;SDS011;64877;50.994;13.650;2024-03-23T09:35:11;9.15;;;6.15;;
76131;SDS011;64877;50.994;13.650;2024-03-23T09:37:38;11.25;;;7.30;;
76131;SDS011;64877;50.994;13.650;2024-03-23T09:40:09;14.32;;;7.25;;
76131;SDS011;64877;50.994;13.650;2024-03-23T09:42:36;16.83;;;8.80;;
76131;SDS011;64877;50.994;13.650;2024-03-23T09:45:02;16.63;;;8.95;;
76131;SDS011;64877;50.994;13.650;2024-03-23T09:47:30;14.68;;;8.27;;
76131;SDS011;64877;50.994;13.650;2024-03-23T09:49:57;13.55;;;8.75;;
76131;SDS011;64877;50.994;13.650;2024-03-23T09:52:24;14.65;;;9.20;;
76131;SDS011;64877;50.994;13.650;2024-03-23T09:54:49;14.43;;;7.80;;
76131;SDS011;64877;50.994;13.650;2024-03-23T09:57:15;10.75;;;4.85;;
76131;SDS011;64877;50.994;13.650;2024-03-23T09:59:40;9.05;;;3.92;;
76131;SDS011;64877;50.994;13.650;2024-03-23T10:02:06;6.32;;;2.40;;
76131;SDS011;64877;50.994;13.650;2024-03-23T10:04:38;2.97;;;1.30;;
76131;SDS011;64877;50.994;13.650;2024-03-23T10:07:14;6.13;;;1.92;;
76131;SDS011;64877;50.994;13.650;2024-03-23T10:09:48;5.50;;;1.60;;
76131;SDS011;64877;50.994;13.650;2024-03-23T10:14:43;2.50;;;0.70;;
76131;SDS011;64877;50.994;13.650;2024-03-23T10:17:17;3.05;;;1.50;;
76131;SDS011;64877;50.994;13.650;2024-03-23T10:19:46;5.28;;;1.25;;
76131;SDS011;64877;50.994;13.650;2024-03-23T10:22:16;3.35;;;1.60;;
76131;SDS011;64877;50.994;13.650;2024-03-23T10:24:43;2.30;;;1.20;;
76131;SDS011;64877;50.994;13.650;2024-03-23T10:27:08;3.13;;;0.80;;
76131;SDS011;64877;50.994;13.650;2024-03-23T10:29:34;2.08;;;0.90;;
76131;SDS011;64877;50.994;13.650;2024-03-23T10:32:11;2.35;;;0.80;;
76131;SDS011;64877;50.994;13.650;2024-03-23T10:34:38;7.90;;;3.10;;
76131;SDS011;64877;50.994;13.650;2024-03-23T10:37:05;4.28;;;1.90;;
76131;SDS011;64877;50.994;13.650;2024-03-23T10:39:35;1.42;;;0.77;;
76131;SDS011;64877;50.994;13.650;2024-03-23T10:42:02;1.48;;;0.70;;
76131;SDS011;64877;50.994;13.650;2024-03-23T10:44:29;1.90;;;0.90;;
76131;SDS011;64877;50.994;13.650;2024-03-23T10:46:56;3.97;;;1.92;;
76131;SDS011;64877;50.994;13.650;2024-03-23T10:49:26;5.43;;;2.30;;
76131;SDS011;64877;50.994;13.650;2024-03-23T10:51:55;0.98;;;0.43;;
76131;SDS011;64877;50.994;13.650;2024-03-23T10:54:22;2.60;;;1.10;;
76131;SDS011;64877;50.994;13.650;2024-03-23T10:56:50;2.50;;;0.93;;
76131;SDS011;64877;50.994;13.650;2024-03-23T10:59:18;3.20;;;0.80;;
76131;SDS011;64877;50.994;13.650;2024-03-23T11:01:55;1.08;;;0.55;;
76131;SDS011;64877;50.994;13.650;2024-03-23T11:07:03;1.10;;;0.50;;
76131;SDS011;64877;50.994;13.650;2024-03-23T11:09:48;1.13;;;0.50;;
76131;SDS011;64877;50.994;13.650;2024-03-23T11:15:03;1.25;;;0.50;;
76131;SDS011;64877;50.994;13.650;2024-03-23T11:17:30;0.50;;;0.20;;
76131;SDS011;64877;50.994;13.650;2024-03-23T11:25:18;1.83;;;0.70;;
76131;SDS011;64877;50.994;13.650;2024-03-23T11:27:49;0.95;;;0.30;;
76131;SDS011;64877;50.994;13.650;2024-03-23T11:30:18;0.77;;;0.28;;
76131;SDS011;64877;50.994;13.650;2024-03-23T11:32:44;1.55;;;0.73;;
76131;SDS011;64877;50.994;13.650;2024-03-23T11:35:24;0.77;;;0.40;;
76131;SDS011;64877;50.994;13.650;2024-03-23T11:40:39;0.90;;;0.40;;
76131;SDS011;64877;50.994;13.650;2024-03-23T11:43:08;2.08;;;0.80;;
76131;SDS011;64877;50.994;13.650;2024-03-23T11:45:38;0.50;;;0.40;;
76131;SDS011;64877;50.994;13.650;2024-03-23T11:48:11;0.28;;;0.20;;
76131;SDS011;64877;50.994;13.650;2024-03-23T11:50:42;1.08;;;0.50;;
76131;SDS011;64877;50.994;13.650;2024-03-23T11:55:52;1.58;;;0.60;;
76131;SDS011;64877;50.994;13.650;2024-03-23T11:58:20;1.77;;;0.57;;
76131;SDS011;64877;50.994;13.650;2024-03-23T12:01:00;0.88;;;0.30;;
76131;SDS011;64877;50.994;13.650;2024-03-23T12:03:27;0.50;;;0.25;;
76131;SDS011;64877;50.994;13.650;2024-03-23T12:05:54;0.70;;;0.47;;
76131;SDS011;64877;50.994;13.650;2024-03-23T12:08:24;0.40;;;0.20;;
76131;SDS011;64877;50.994;13.650;2024-03-23T12:11:04;0.90;;;0.40;;
76131;SDS011;64877;50.994;13.650;2024-03-23T12:13:34;1.52;;;0.60;;
76131;SDS011;64877;50.994;13.650;2024-03-23T12:18:34;1.02;;;0.55;;
76131;SDS011;64877;50.994;13.650;2024-03-23T12:21:00;1.13;;;0.60;;
76131;SDS011;64877;50.994;13.650;2024-03-23T12:23:25;1.27;;;0.60;;
76131;SDS011;64877;50.994;13.650;2024-03-23T12:25:51;1.52;;;0.80;;
76131;SDS011;64877;50.994;13.650;2024-03-23T12:28:16;2.38;;;1.08;;
76131;SDS011;64877;50.994;13.650;2024-03-23T12:30:42;2.00;;;1.08;;
76131;SDS011;64877;50.994;13.650;2024-03-23T12:33:07;1.48;;;0.85;;
76131;SDS011;64877;50.994;13.650;2024-03-23T12:35:33;1.67;;;0.90;;
76131;SDS011;64877;50.994;13.650;2024-03-23T12:37:59;1.50;;;0.90;;
76131;SDS011;64877;50.994;13.650;2024-03-23T12:40:24;1.33;;;0.73;;
76131;SDS011;64877;50.994;13.650;2024-03-23T12:42:50;1.80;;;1.02;;
76131;SDS011;64877;50.994;13.650;2024-03-23T12:45:17;1.88;;;1.10;;
76131;SDS011;64877;50.994;13.650;2024-03-23T12:47:43;1.48;;;0.80;;
76131;SDS011;64877;50.994;13.650;2024-03-23T12:50:10;1.23;;;0.70;;
76131;SDS011;64877;50.994;13.650;2024-03-23T12:52:36;1.20;;;0.82;;
76131;SDS011;64877;50.994;13.650;2024-03-23T12:55:03;1.83;;;0.80;;
76131;SDS011;64877;50.994;13.650;2024-03-23T12:57:31;1.65;;;0.93;;
76131;SDS011;64877;50.994;13.650;2024-03-23T12:59:57;1.90;;;1.05;;
76131;SDS011;64877;50.994;13.650;2024-03-23T13:02:23;1.13;;;0.70;;
76131;SDS011;64877;50.994;13.650;2024-03-23T13:04:52;1.42;;;0.88;;
76131;SDS011;64877;50.994;13.650;2024-03-23T13:07:18;2.92;;;1.13;;
76131;SDS011;64877;50.994;13.650;2024-03-23T13:09:45;2.50;;;0.90;;
76131;SDS011;64877;50.994;13.650;2024-03-23T13:12:10;1.90;;;0.90;;
76131;SDS011;64877;50.994;13.650;2024-03-23T13:14:37;1.88;;;1.05;;
76131;SDS011;64877;50.994;13.650;2024-03-23T13:17:03;1.58;;;1.02;;
76131;SDS011;64877;50.994;13.650;2024-03-23T13:19:29;2.10;;;1.10;;
76131;SDS011;64877;50.994;13.650;2024-03-23T13:21:59;1.65;;;1.10;;
76131;SDS011;64877;50.994;13.650;2024-03-23T13:24:26;1.30;;;0.90;;
76131;SDS011;64877;50.994;13.650;2024-03-23T13:26:55;2.95;;;1.00;;
76131;SDS011;64877;50.994;13.650;2024-03-23T13:29:21;5.43;;;1.05;;
76131;SDS011;64877;50.994;13.650;2024-03-23T13:31:48;1.55;;;0.88;;
76131;SDS011;64877;50.994;13.650;2024-03-23T13:34:14;2.90;;;1.08;;
76131;SDS011;64877;50.994;13.650;2024-03-23T13:36:46;3.70;;;1.00;;
76131;SDS011;64877;50.994;13.650;2024-03-23T13:39:12;3.65;;;1.13;;
76131;SDS011;64877;50.994;13.650;2024-03-23T13:41:42;4.82;;;1.80;;
76131;SDS011;64877;50.994;13.650;2024-03-23T13:44:10;5.25;;;1.30;;
76131;SDS011;64877;50.994;13.650;2024-03-23T13:46:36;3.80;;;0.85;;
76131;SDS011;64877;50.994;13.650;2024-03-23T13:49:03;4.30;;;0.90;;
76131;SDS011;64877;50.994;13.650;2024-03-23T13:51:29;4.05;;;1.00;;
76131;SDS011;64877;50.994;13.650;2024-03-23T13:53:54;5.07;;;1.10;;
76131;SDS011;64877;50.994;13.650;2024-03-23T13:56:22;2.85;;;1.20;;
76131;SDS011;64877;50.994;13.650;2024-03-23T13:58:48;3.17;;;1.00;;
76131;SDS011;64877;50.994;13.650;2024-03-23T14:01:16;2.10;;;0.88;;
76131;SDS011;64877;50.994;13.650;2024-03-23T14:03:43;4.38;;;1.30;;
76131;SDS011;64877;50.994;13.650;2024-03-23T14:06:09;4.35;;;1.23;;
76131;SDS011;64877;50.994;13.650;2024-03-23T14:08:38;6.18;;;1.38;;
76131;SDS011;64877;50.994;13.650;2024-03-23T14:11:07;4.38;;;1.60;;
76131;SDS011;64877;50.994;13.650;2024-03-23T14:13:36;6.57;;;1.30;;
76131;SDS011;64877;50.994;13.650;2024-03-23T14:16:02;4.53;;;1.25;;
76131;SDS011;64877;50.994;13.650;2024-03-23T14:18:28;3.40;;;1.08;;
76131;SDS011;64877;50.994;13.650;2024-03-23T14:20:59;7.85;;;1.58;;
76131;SDS011;64877;50.994;13.650;2024-03-23T14:23:25;5.63;;;1.10;;
76131;SDS011;64877;50.994;13.650;2024-03-23T14:25:56;6.70;;;2.03;;
76131;SDS011;64877;50.994;13.650;2024-03-23T14:28:22;6.10;;;1.35;;
76131;SDS011;64877;50.994;13.650;2024-03-23T14:30:48;5.43;;;1.15;;
76131;SDS011;64877;50.994;13.650;2024-03-23T14:33:15;5.70;;;1.50;;
76131;SDS011;64877;50.994;13.650;2024-03-23T14:35:41;5.63;;;1.50;;
76131;SDS011;64877;50.994;13.650;2024-03-23T14:38:06;4.28;;;1.08;;
76131;SDS011;64877;50.994;13.650;2024-03-23T14:40:32;3.67;;;1.10;;
76131;SDS011;64877;50.994;13.650;2024-03-23T14:42:58;3.65;;;1.15;;
76131;SDS011;64877;50.994;13.650;2024-03-23T14:45:23;7.25;;;1.52;;
76131;SDS011;64877;50.994;13.650;2024-03-23T14:47:52;4.13;;;1.52;;
76131;SDS011;64877;50.994;13.650;2024-03-23T14:50:18;4.05;;;1.40;;
76131;SDS011;64877;50.994;13.650;2024-03-23T14:52:44;4.25;;;1.55;;
76131;SDS011;64877;50.994;13.650;2024-03-23T14:55:10;6.15;;;1.77;;
76131;SDS011;64877;50.994;13.650;2024-03-23T14:57:39;6.78;;;2.15;;
76131;SDS011;64877;50.994;13.650;2024-03-23T15:00:06;5.63;;;1.90;;
76131;SDS011;64877;50.994;13.650;2024-03-23T15:02:33;4.13;;;1.75;;
76131;SDS011;64877;50.994;13.650;2024-03-23T15:04:59;7.05;;;1.60;;
76131;SDS011;64877;50.994;13.650;2024-03-23T15:07:24;6.05;;;1.50;;
76131;SDS011;64877;50.994;13.650;2024-03-23T15:09:50;3.50;;;1.45;;
76131;SDS011;64877;50.994;13.650;2024-03-23T15:12:15;3.38;;;1.30;;
76131;SDS011;64877;50.994;13.650;2024-03-23T15:14:41;5.40;;;1.55;;
76131;SDS011;64877;50.994;13.650;2024-03-23T15:17:06;5.00;;;1.30;;
76131;SDS011;64877;50.994;13.650;2024-03-23T15:19:34;3.63;;;1.27;;
76131;SDS011;64877;50.994;13.650;2024-03-23T15:21:59;4.65;;;1.40;;
76131;SDS011;64877;50.994;13.650;2024-03-23T15:24:25;4.97;;;1.88;;
76131;SDS011;64877;50.994;13.650;2024-03-23T15:26:50;7.05;;;1.70;;
76131;SDS011;64877;50.994;13.650;2024-03-23T15:29:17;4.75;;;1.42;;
76131;SDS011;64877;50.994;13.650;2024-03-23T15:31:43;4.55;;;1.75;;
76131;SDS011;64877;50.994;13.650;2024-03-23T15:34:08;4.40;;;1.50;;
76131;SDS011;64877;50.994;13.650;2024-03-23T15:36:37;7.35;;;2.50;;